Retreat, Georgia
Current Conditions -  °F | °C
As of 3:38 AM on Friday 31 Oct 2014 (Local Time) from KLHW Reporting Station
Clear Clear  
Wind Chill: 11°   Ceiling: Unl
Heat Index: 11°   Visibility: 9mi
Dew Point: 10°   Wind: 0mph
Humidity: 94%   Direction: NA
Pressure: 29.87"   Gusts: NA
Location:  31.7217°N, 81.4475°W
Report Text: KLHW 310738Z AUTO 00000KT 9SM R33/5500FT CLR 11/10 A2987 RMK AO2
Loading
Personal Weather Stations






























Interactive Weather Map
Tropical Storm Tracking
New forecast layout! Learn more

10-Day Weather Forecast

Advertisements
Track Severe Weather on mobile